sensor_id;sensor_type;location;lat;lon;timestamp;pressure;altitude;pressure_sealevel;temperature;humidity
18697;BME280;22617;43.690;27.956;2023-08-21T00:04:16;98807.28;;;21.85;58.22
18697;BME280;22617;43.690;27.956;2023-08-21T00:09:21;98815.78;;;21.91;57.85
18697;BME280;22617;43.690;27.956;2023-08-21T00:14:25;98818.31;;;21.77;58.18
18697;BME280;22617;43.690;27.956;2023-08-21T00:19:28;98821.53;;;21.66;58.39
18697;BME280;22617;43.690;27.956;2023-08-21T00:24:33;98811.06;;;21.63;58.82
18697;BME280;22617;43.690;27.956;2023-08-21T00:29:37;98819.25;;;21.59;58.72
18697;BME280;22617;43.690;27.956;2023-08-21T00:34:40;98821.06;;;21.41;59.25
18697;BME280;22617;43.690;27.956;2023-08-21T00:39:45;98817.78;;;21.36;59.99
18697;BME280;22617;43.690;27.956;2023-08-21T00:44:49;98815.19;;;21.17;60.54
18697;BME280;22617;43.690;27.956;2023-08-21T00:49:53;98813.72;;;21.29;59.93
18697;BME280;22617;43.690;27.956;2023-08-21T00:54:58;98809.19;;;21.31;59.63
18697;BME280;22617;43.690;27.956;2023-08-21T01:00:02;98814.78;;;21.25;59.98
18697;BME280;22617;43.690;27.956;2023-08-21T01:05:08;98810.34;;;21.25;59.97
18697;BME280;22617;43.690;27.956;2023-08-21T01:10:17;98818.97;;;21.12;59.43
18697;BME280;22617;43.690;27.956;2023-08-21T01:15:24;98822.69;;;21.26;59.15
18697;BME280;22617;43.690;27.956;2023-08-21T01:20:28;98817.88;;;21.52;58.80
18697;BME280;22617;43.690;27.956;2023-08-21T01:25:34;98808.09;;;21.69;58.48
18697;BME280;22617;43.690;27.956;2023-08-21T01:30:37;98812.47;;;21.70;58.45
18697;BME280;22617;43.690;27.956;2023-08-21T01:35:41;98826.91;;;21.65;58.93
18697;BME280;22617;43.690;27.956;2023-08-21T01:40:48;98825.28;;;21.62;58.91
18697;BME280;22617;43.690;27.956;2023-08-21T01:45:52;98826.06;;;21.47;59.27
18697;BME280;22617;43.690;27.956;2023-08-21T01:50:55;98829.81;;;21.43;59.08
18697;BME280;22617;43.690;27.956;2023-08-21T01:56:00;98826.06;;;21.47;59.11
18697;BME280;22617;43.690;27.956;2023-08-21T02:01:06;98834.84;;;21.65;58.62
18697;BME280;22617;43.690;27.956;2023-08-21T02:06:10;98846.25;;;21.67;58.51
18697;BME280;22617;43.690;27.956;2023-08-21T02:11:15;98841.03;;;21.65;58.86
18697;BME280;22617;43.690;27.956;2023-08-21T02:16:19;98846.72;;;21.75;58.81
18697;BME280;22617;43.690;27.956;2023-08-21T02:21:23;98839.53;;;21.77;58.98
18697;BME280;22617;43.690;27.956;2023-08-21T02:26:28;98845.22;;;21.69;59.55
18697;BME280;22617;43.690;27.956;2023-08-21T02:31:32;98842.97;;;21.62;60.13
18697;BME280;22617;43.690;27.956;2023-08-21T02:36:35;98849.13;;;21.45;61.23
18697;BME280;22617;43.690;27.956;2023-08-21T02:41:40;98836.81;;;21.61;60.85
18697;BME280;22617;43.690;27.956;2023-08-21T02:46:44;98835.53;;;21.68;60.79
18697;BME280;22617;43.690;27.956;2023-08-21T02:51:47;98841.72;;;21.69;61.07
18697;BME280;22617;43.690;27.956;2023-08-21T02:56:53;98839.94;;;21.69;61.50
18697;BME280;22617;43.690;27.956;2023-08-21T03:01:56;98833.00;;;21.67;61.57
18697;BME280;22617;43.690;27.956;2023-08-21T03:07:00;98830.59;;;21.62;61.76
18697;BME280;22617;43.690;27.956;2023-08-21T03:12:05;98841.03;;;21.65;61.55
18697;BME280;22617;43.690;27.956;2023-08-21T03:17:09;98843.69;;;21.65;61.88
18697;BME280;22617;43.690;27.956;2023-08-21T03:22:13;98839.94;;;21.69;61.62
18697;BME280;22617;43.690;27.956;2023-08-21T03:27:19;98843.75;;;21.64;61.87
18697;BME280;22617;43.690;27.956;2023-08-21T03:32:22;98842.19;;;21.60;62.16
18697;BME280;22617;43.690;27.956;2023-08-21T03:37:26;98842.88;;;21.63;62.29
18697;BME280;22617;43.690;27.956;2023-08-21T03:42:32;98846.25;;;21.67;62.46
18697;BME280;22617;43.690;27.956;2023-08-21T03:47:35;98847.09;;;21.85;62.02
18697;BME280;22617;43.690;27.956;2023-08-21T03:52:45;98847.25;;;21.99;61.85
18697;BME280;22617;43.690;27.956;2023-08-21T03:57:50;98850.34;;;22.07;61.96
18697;BME280;22617;43.690;27.956;2023-08-21T04:02:53;98861.59;;;22.12;62.11
18697;BME280;22617;43.690;27.956;2023-08-21T04:07:57;98863.25;;;22.14;62.21
18697;BME280;22617;43.690;27.956;2023-08-21T04:13:02;98863.81;;;22.04;63.61
18697;BME280;22617;43.690;27.956;2023-08-21T04:18:06;98866.09;;;21.94;64.38
18697;BME280;22617;43.690;27.956;2023-08-21T04:23:10;98864.59;;;22.06;64.54
18697;BME280;22617;43.690;27.956;2023-08-21T04:28:15;98867.38;;;22.20;64.56
18697;BME280;22617;43.690;27.956;2023-08-21T04:33:18;98866.47;;;22.37;64.65
18697;BME280;22617;43.690;27.956;2023-08-21T04:38:22;98866.50;;;22.52;64.39
18697;BME280;22617;43.690;27.956;2023-08-21T04:43:27;98859.38;;;22.69;64.01
18697;BME280;22617;43.690;27.956;2023-08-21T04:48:31;98872.44;;;22.89;63.77
18697;BME280;22617;43.690;27.956;2023-08-21T04:53:36;98869.53;;;23.09;63.03
18697;BME280;22617;43.690;27.956;2023-08-21T04:58:46;98873.19;;;23.22;62.69
18697;BME280;22617;43.690;27.956;2023-08-21T05:03:51;98868.28;;;23.46;61.68
18697;BME280;22617;43.690;27.956;2023-08-21T05:08:56;98871.78;;;23.62;61.36
18697;BME280;22617;43.690;27.956;2023-08-21T05:14:01;98866.72;;;23.87;61.45
18697;BME280;22617;43.690;27.956;2023-08-21T05:19:05;98876.75;;;24.12;60.50
18697;BME280;22617;43.690;27.956;2023-08-21T05:24:08;98878.19;;;24.32;59.62
18697;BME280;22617;43.690;27.956;2023-08-21T05:29:18;98866.84;;;24.57;59.41
18697;BME280;22617;43.690;27.956;2023-08-21T05:34:22;98873.13;;;24.84;58.85
18697;BME280;22617;43.690;27.956;2023-08-21T05:39:27;98867.75;;;25.12;57.79
18697;BME280;22617;43.690;27.956;2023-08-21T05:44:34;98876.50;;;25.41;57.11
18697;BME280;22617;43.690;27.956;2023-08-21T05:49:38;98870.38;;;25.66;56.39
18697;BME280;22617;43.690;27.956;2023-08-21T05:54:41;98869.06;;;25.98;55.63
18697;BME280;22617;43.690;27.956;2023-08-21T05:59:47;98862.78;;;26.25;54.77
18697;BME280;22617;43.690;27.956;2023-08-21T06:04:51;98877.53;;;26.56;54.40
18697;BME280;22617;43.690;27.956;2023-08-21T06:09:57;98873.19;;;26.91;53.82
18697;BME280;22617;43.690;27.956;2023-08-21T06:15:03;98882.34;;;27.12;53.19
18697;BME280;22617;43.690;27.956;2023-08-21T06:20:07;98893.16;;;27.34;53.08
18697;BME280;22617;43.690;27.956;2023-08-21T06:25:11;98887.00;;;27.69;52.61
18697;BME280;22617;43.690;27.956;2023-08-21T06:30:17;98884.06;;;28.07;51.64
18697;BME280;22617;43.690;27.956;2023-08-21T06:35:21;98897.94;;;28.25;52.07
18697;BME280;22617;43.690;27.956;2023-08-21T06:40:26;98887.59;;;28.65;49.97
18697;BME280;22617;43.690;27.956;2023-08-21T06:45:31;98898.19;;;29.11;48.91
18697;BME280;22617;43.690;27.956;2023-08-21T06:50:37;98899.13;;;29.43;48.58
18697;BME280;22617;43.690;27.956;2023-08-21T06:55:40;98898.31;;;29.84;47.52
18697;BME280;22617;43.690;27.956;2023-08-21T07:00:46;98907.19;;;30.07;45.97
18697;BME280;22617;43.690;27.956;2023-08-21T07:05:53;98911.88;;;30.35;45.68
18697;BME280;22617;43.690;27.956;2023-08-21T07:10:57;98904.66;;;30.56;45.67
18697;BME280;22617;43.690;27.956;2023-08-21T07:16:02;98911.34;;;30.92;44.73
18697;BME280;22617;43.690;27.956;2023-08-21T07:21:07;98915.25;;;31.18;43.99
18697;BME280;22617;43.690;27.956;2023-08-21T07:26:28;98922.47;;;31.58;43.59
18697;BME280;22617;43.690;27.956;2023-08-21T07:31:33;98914.94;;;31.81;43.54
18697;BME280;22617;43.690;27.956;2023-08-21T07:36:38;98909.53;;;31.90;42.56
18697;BME280;22617;43.690;27.956;2023-08-21T07:41:41;98915.94;;;32.28;43.26
18697;BME280;22617;43.690;27.956;2023-08-21T07:46:46;98912.59;;;32.53;42.63
18697;BME280;22617;43.690;27.956;2023-08-21T07:51:50;98905.44;;;32.62;41.55
18697;BME280;22617;43.690;27.956;2023-08-21T07:56:53;98917.81;;;33.01;42.37
18697;BME280;22617;43.690;27.956;2023-08-21T08:01:58;98913.47;;;33.27;42.72
18697;BME280;22617;43.690;27.956;2023-08-21T08:07:03;98917.28;;;33.52;41.00
18697;BME280;22617;43.690;27.956;2023-08-21T08:12:07;98913.53;;;33.53;40.45
18697;BME280;22617;43.690;27.956;2023-08-21T08:17:12;98915.59;;;33.87;41.24
18697;BME280;22617;43.690;27.956;2023-08-21T08:22:16;98905.31;;;34.08;40.63
18697;BME280;22617;43.690;27.956;2023-08-21T08:27:19;98911.59;;;34.34;39.29
18697;BME280;22617;43.690;27.956;2023-08-21T08:32:25;98905.63;;;34.48;38.99
18697;BME280;22617;43.690;27.956;2023-08-21T08:37:28;98912.97;;;34.64;38.15
18697;BME280;22617;43.690;27.956;2023-08-21T08:42:34;98908.75;;;34.62;37.62
18697;BME280;22617;43.690;27.956;2023-08-21T08:47:40;98899.84;;;34.69;37.78
18697;BME280;22617;43.690;27.956;2023-08-21T08:52:44;98897.22;;;35.19;38.05
18697;BME280;22617;43.690;27.956;2023-08-21T08:57:48;98891.41;;;35.14;37.06
18697;BME280;22617;43.690;27.956;2023-08-21T09:02:54;98899.16;;;35.43;37.82
18697;BME280;22617;43.690;27.956;2023-08-21T09:08:02;98892.22;;;35.65;37.16
18697;BME280;22617;43.690;27.956;2023-08-21T09:13:14;98885.44;;;35.53;36.80
18697;BME280;22617;43.690;27.956;2023-08-21T09:18:20;98877.53;;;35.92;36.62
18697;BME280;22617;43.690;27.956;2023-08-21T09:23:23;98876.69;;;36.15;36.85
18697;BME280;22617;43.690;27.956;2023-08-21T09:28:27;98873.63;;;36.10;36.24
18697;BME280;22617;43.690;27.956;2023-08-21T09:33:33;98862.34;;;36.62;35.09
18697;BME280;22617;43.690;27.956;2023-08-21T09:38:39;98854.66;;;36.82;35.70
18697;BME280;22617;43.690;27.956;2023-08-21T09:43:43;98868.16;;;36.98;35.24
18697;BME280;22617;43.690;27.956;2023-08-21T09:48:48;98866.53;;;36.81;34.61
18697;BME280;22617;43.690;27.956;2023-08-21T09:53:54;98863.22;;;37.01;35.01
18697;BME280;22617;43.690;27.956;2023-08-21T09:58:59;98864.88;;;37.41;33.26
18697;BME280;22617;43.690;27.956;2023-08-21T10:04:05;98862.81;;;37.21;33.54
18697;BME280;22617;43.690;27.956;2023-08-21T10:09:12;98863.59;;;37.52;33.26
18697;BME280;22617;43.690;27.956;2023-08-21T10:14:17;98853.38;;;37.62;32.90
18697;BME280;22617;43.690;27.956;2023-08-21T10:19:23;98853.16;;;37.41;33.35
18697;BME280;22617;43.690;27.956;2023-08-21T10:24:27;98825.53;;;37.97;32.48
18697;BME280;22617;43.690;27.956;2023-08-21T10:29:31;98830.63;;;38.15;32.92
18697;BME280;22617;43.690;27.956;2023-08-21T10:34:37;98823.69;;;37.90;31.41
18697;BME280;22617;43.690;27.956;2023-08-21T10:39:54;98818.94;;;37.24;32.59
18697;BME280;22617;43.690;27.956;2023-08-21T10:45:10;98814.72;;;37.44;32.85
18697;BME280;22617;43.690;27.956;2023-08-21T10:50:15;98801.09;;;38.42;32.56
18697;BME280;22617;43.690;27.956;2023-08-21T10:55:20;98806.31;;;38.14;32.35
18697;BME280;22617;43.690;27.956;2023-08-21T11:00:23;98809.03;;;36.53;32.99
18697;BME280;22617;43.690;27.956;2023-08-21T11:05:28;98805.81;;;36.96;32.65
18697;BME280;22617;43.690;27.956;2023-08-21T11:10:32;98803.00;;;37.66;31.63
18697;BME280;22617;43.690;27.956;2023-08-21T11:15:36;98800.13;;;36.75;33.57
18697;BME280;22617;43.690;27.956;2023-08-21T11:20:40;98797.16;;;35.66;33.46
18697;BME280;22617;43.690;27.956;2023-08-21T11:25:46;98814.88;;;34.78;36.54
18697;BME280;22617;43.690;27.956;2023-08-21T11:30:50;98818.16;;;33.79;37.82
18697;BME280;22617;43.690;27.956;2023-08-21T11:35:55;98823.97;;;32.49;43.13
18697;BME280;22617;43.690;27.956;2023-08-21T11:41:02;98855.06;;;31.58;44.58
18697;BME280;22617;43.690;27.956;2023-08-21T11:46:10;98847.28;;;30.96;46.82
18697;BME280;22617;43.690;27.956;2023-08-21T11:51:15;98856.72;;;31.21;46.11
18697;BME280;22617;43.690;27.956;2023-08-21T11:56:19;98870.22;;;31.49;44.51
18697;BME280;22617;43.690;27.956;2023-08-21T12:01:25;98870.09;;;31.51;46.88
18697;BME280;22617;43.690;27.956;2023-08-21T12:06:30;98866.16;;;31.74;44.51
18697;BME280;22617;43.690;27.956;2023-08-21T12:11:35;98868.22;;;31.99;43.45
18697;BME280;22617;43.690;27.956;2023-08-21T12:16:40;98866.66;;;32.07;43.87
18697;BME280;22617;43.690;27.956;2023-08-21T12:21:46;98866.97;;;32.13;43.80
18697;BME280;22617;43.690;27.956;2023-08-21T12:26:50;98869.34;;;32.26;44.20
18697;BME280;22617;43.690;27.956;2023-08-21T12:31:53;98878.88;;;32.20;44.91
18697;BME280;22617;43.690;27.956;2023-08-21T12:36:58;98866.38;;;32.19;45.38
18697;BME280;22617;43.690;27.956;2023-08-21T12:42:01;98869.81;;;32.12;44.31
18697;BME280;22617;43.690;27.956;2023-08-21T12:47:05;98870.66;;;32.22;45.11
18697;BME280;22617;43.690;27.956;2023-08-21T12:52:10;98864.97;;;32.06;44.50
18697;BME280;22617;43.690;27.956;2023-08-21T12:57:14;98870.50;;;31.94;44.32
18697;BME280;22617;43.690;27.956;2023-08-21T13:02:18;98862.72;;;31.82;43.56
18697;BME280;22617;43.690;27.956;2023-08-21T13:07:24;98869.97;;;31.81;43.41
18697;BME280;22617;43.690;27.956;2023-08-21T13:12:27;98868.13;;;31.82;44.23
18697;BME280;22617;43.690;27.956;2023-08-21T13:17:31;98863.69;;;31.90;43.64
18697;BME280;22617;43.690;27.956;2023-08-21T13:22:49;98858.31;;;31.90;44.49
18697;BME280;22617;43.690;27.956;2023-08-21T13:27:54;98856.75;;;31.97;43.62
18697;BME280;22617;43.690;27.956;2023-08-21T13:32:57;98853.91;;;32.09;44.42
18697;BME280;22617;43.690;27.956;2023-08-21T13:38:03;98852.47;;;32.04;44.69
18697;BME280;22617;43.690;27.956;2023-08-21T13:43:08;98847.25;;;32.13;45.18
18697;BME280;22617;43.690;27.956;2023-08-21T13:48:14;98844.66;;;32.21;42.99
18697;BME280;22617;43.690;27.956;2023-08-21T13:53:19;98843.66;;;32.22;42.81
18697;BME280;22617;43.690;27.956;2023-08-21T13:58:23;98845.66;;;32.10;43.52
18697;BME280;22617;43.690;27.956;2023-08-21T14:03:26;98850.78;;;32.03;43.41
18697;BME280;22617;43.690;27.956;2023-08-21T14:08:31;98839.84;;;31.95;42.94
18697;BME280;22617;43.690;27.956;2023-08-21T14:13:35;98839.44;;;31.90;42.89
18697;BME280;22617;43.690;27.956;2023-08-21T14:18:38;98838.16;;;31.75;43.38
18697;BME280;22617;43.690;27.956;2023-08-21T14:23:43;98825.97;;;31.71;43.60
18697;BME280;22617;43.690;27.956;2023-08-21T14:28:46;98842.16;;;31.71;43.21
18697;BME280;22617;43.690;27.956;2023-08-21T14:33:52;98836.19;;;31.68;42.01
18697;BME280;22617;43.690;27.956;2023-08-21T14:38:58;98836.03;;;31.50;42.44
18697;BME280;22617;43.690;27.956;2023-08-21T14:44:03;98835.31;;;31.38;42.68
18697;BME280;22617;43.690;27.956;2023-08-21T14:49:06;98837.75;;;31.32;42.63
18697;BME280;22617;43.690;27.956;2023-08-21T14:54:11;98822.25;;;31.24;42.48
18697;BME280;22617;43.690;27.956;2023-08-21T14:59:14;98835.31;;;31.29;41.99
18697;BME280;22617;43.690;27.956;2023-08-21T15:04:18;98832.63;;;31.19;42.70
18697;BME280;22617;43.690;27.956;2023-08-21T15:09:23;98825.50;;;31.08;43.26
18697;BME280;22617;43.690;27.956;2023-08-21T15:14:26;98819.00;;;31.01;44.02
18697;BME280;22617;43.690;27.956;2023-08-21T15:19:30;98813.00;;;30.98;44.36
18697;BME280;22617;43.690;27.956;2023-08-21T15:24:35;98818.09;;;30.91;44.46
18697;BME280;22617;43.690;27.956;2023-08-21T15:29:38;98813.00;;;30.88;44.21
18697;BME280;22617;43.690;27.956;2023-08-21T15:34:42;98814.41;;;30.92;43.72
18697;BME280;22617;43.690;27.956;2023-08-21T15:39:47;98811.88;;;31.00;43.30
18697;BME280;22617;43.690;27.956;2023-08-21T15:44:50;98809.59;;;30.96;44.42
18697;BME280;22617;43.690;27.956;2023-08-21T15:49:54;98817.94;;;30.93;44.90
18697;BME280;22617;43.690;27.956;2023-08-21T15:54:59;98817.66;;;30.96;44.33
18697;BME280;22617;43.690;27.956;2023-08-21T16:00:03;98823.91;;;30.96;44.78
18697;BME280;22617;43.690;27.956;2023-08-21T16:05:08;98820.41;;;31.05;44.24
18697;BME280;22617;43.690;27.956;2023-08-21T16:10:14;98808.50;;;31.17;44.16
18697;BME280;22617;43.690;27.956;2023-08-21T16:15:17;98810.22;;;31.18;43.97
18697;BME280;22617;43.690;27.956;2023-08-21T16:20:21;98818.28;;;31.18;43.84
18697;BME280;22617;43.690;27.956;2023-08-21T16:25:27;98827.50;;;31.16;43.94
18697;BME280;22617;43.690;27.956;2023-08-21T16:30:31;98810.78;;;31.12;44.02
18697;BME280;22617;43.690;27.956;2023-08-21T16:35:35;98818.16;;;31.10;44.36
18697;BME280;22617;43.690;27.956;2023-08-21T16:40:39;98816.94;;;30.94;44.57
18697;BME280;22617;43.690;27.956;2023-08-21T16:45:43;98821.72;;;30.81;45.04
18697;BME280;22617;43.690;27.956;2023-08-21T16:50:47;98818.56;;;30.66;45.31
18697;BME280;22617;43.690;27.956;2023-08-21T16:55:52;98810.03;;;30.51;45.46
18697;BME280;22617;43.690;27.956;2023-08-21T17:00:55;98815.94;;;30.45;45.18
18697;BME280;22617;43.690;27.956;2023-08-21T17:05:59;98810.78;;;30.32;45.66
18697;BME280;22617;43.690;27.956;2023-08-21T17:11:04;98820.34;;;30.16;45.71
18697;BME280;22617;43.690;27.956;2023-08-21T17:16:08;98824.75;;;29.96;46.91
18697;BME280;22617;43.690;27.956;2023-08-21T17:21:11;98831.69;;;29.78;46.96
18697;BME280;22617;43.690;27.956;2023-08-21T17:26:17;98828.00;;;29.58;47.79
18697;BME280;22617;43.690;27.956;2023-08-21T17:31:23;98833.78;;;29.42;48.01
18697;BME280;22617;43.690;27.956;2023-08-21T17:36:27;98838.84;;;29.25;48.78
18697;BME280;22617;43.690;27.956;2023-08-21T17:41:32;98850.47;;;29.03;49.37
18697;BME280;22617;43.690;27.956;2023-08-21T17:46:36;98860.28;;;28.71;50.86
18697;BME280;22617;43.690;27.956;2023-08-21T17:51:40;98864.41;;;28.41;50.93
18697;BME280;22617;43.690;27.956;2023-08-21T17:56:45;98860.75;;;28.31;51.67
18697;BME280;22617;43.690;27.956;2023-08-21T18:01:48;98866.59;;;28.14;51.96
18697;BME280;22617;43.690;27.956;2023-08-21T18:06:52;98867.34;;;27.81;52.46
18697;BME280;22617;43.690;27.956;2023-08-21T18:11:57;98875.22;;;27.71;53.02
18697;BME280;22617;43.690;27.956;2023-08-21T18:17:00;98881.75;;;27.56;53.46
18697;BME280;22617;43.690;27.956;2023-08-21T18:22:05;98876.47;;;27.31;54.07
18697;BME280;22617;43.690;27.956;2023-08-21T18:27:10;98875.97;;;27.26;53.94
18697;BME280;22617;43.690;27.956;2023-08-21T18:32:14;98875.69;;;27.18;54.02
18697;BME280;22617;43.690;27.956;2023-08-21T18:37:18;98888.97;;;27.07;54.60
18697;BME280;22617;43.690;27.956;2023-08-21T18:42:22;98893.09;;;26.87;54.89
18697;BME280;22617;43.690;27.956;2023-08-21T18:47:26;98893.03;;;26.51;55.44
18697;BME280;22617;43.690;27.956;2023-08-21T18:52:31;98887.78;;;26.49;55.99
18697;BME280;22617;43.690;27.956;2023-08-21T18:57:36;98885.44;;;26.44;56.14
18697;BME280;22617;43.690;27.956;2023-08-21T19:02:41;98889.94;;;26.31;55.97
18697;BME280;22617;43.690;27.956;2023-08-21T19:07:45;98901.31;;;25.95;57.02
18697;BME280;22617;43.690;27.956;2023-08-21T19:12:50;98901.31;;;25.95;57.04
18697;BME280;22617;43.690;27.956;2023-08-21T19:17:54;98901.41;;;25.81;56.88
18697;BME280;22617;43.690;27.956;2023-08-21T19:22:57;98904.94;;;25.82;57.42
18697;BME280;22617;43.690;27.956;2023-08-21T19:28:02;98902.00;;;25.59;58.57
18697;BME280;22617;43.690;27.956;2023-08-21T19:33:07;98900.38;;;25.57;58.19
18697;BME280;22617;43.690;27.956;2023-08-21T19:38:11;98903.03;;;25.57;58.08
18697;BME280;22617;43.690;27.956;2023-08-21T19:43:17;98915.84;;;25.38;58.46
18697;BME280;22617;43.690;27.956;2023-08-21T19:48:20;98911.69;;;25.34;58.11
18697;BME280;22617;43.690;27.956;2023-08-21T19:53:24;98911.06;;;25.43;57.83
18697;BME280;22617;43.690;27.956;2023-08-21T19:58:29;98909.88;;;25.34;58.18
18697;BME280;22617;43.690;27.956;2023-08-21T20:03:33;98907.75;;;25.12;58.47
18697;BME280;22617;43.690;27.956;2023-08-21T20:08:36;98911.28;;;24.99;59.17
18697;BME280;22617;43.690;27.956;2023-08-21T20:13:41;98913.88;;;25.00;58.01
18697;BME280;22617;43.690;27.956;2023-08-21T20:18:45;98918.81;;;25.06;58.12
18697;BME280;22617;43.690;27.956;2023-08-21T20:23:49;98915.03;;;24.96;58.10
18697;BME280;22617;43.690;27.956;2023-08-21T20:28:54;98909.97;;;24.77;57.97
18697;BME280;22617;43.690;27.956;2023-08-21T20:33:57;98908.75;;;24.55;59.02
18697;BME280;22617;43.690;27.956;2023-08-21T20:39:01;98904.94;;;24.45;59.72
18697;BME280;22617;43.690;27.956;2023-08-21T20:44:06;98892.50;;;24.45;58.65
18697;BME280;22617;43.690;27.956;2023-08-21T20:49:10;98899.78;;;24.42;59.03
18697;BME280;22617;43.690;27.956;2023-08-21T20:54:13;98894.38;;;24.43;59.73
18697;BME280;22617;43.690;27.956;2023-08-21T20:59:20;98901.50;;;24.28;59.68
18697;BME280;22617;43.690;27.956;2023-08-21T21:04:23;98903.31;;;24.28;59.54
18697;BME280;22617;43.690;27.956;2023-08-21T21:09:27;98897.41;;;24.37;59.17
18697;BME280;22617;43.690;27.956;2023-08-21T21:14:36;98903.88;;;24.47;59.40
18697;BME280;22617;43.690;27.956;2023-08-21T21:19:39;98906.19;;;24.53;59.06
18697;BME280;22617;43.690;27.956;2023-08-21T21:24:43;98909.78;;;24.52;59.12
18697;BME280;22617;43.690;27.956;2023-08-21T21:29:48;98902.66;;;24.67;58.54
18697;BME280;22617;43.690;27.956;2023-08-21T21:34:51;98904.75;;;24.62;59.93
18697;BME280;22617;43.690;27.956;2023-08-21T21:39:55;98903.03;;;24.47;61.36
18697;BME280;22617;43.690;27.956;2023-08-21T21:44:59;98900.06;;;24.23;61.55
18697;BME280;22617;43.690;27.956;2023-08-21T21:50:05;98894.41;;;24.13;61.20
18697;BME280;22617;43.690;27.956;2023-08-21T21:55:09;98894.41;;;24.13;61.24
18697;BME280;22617;43.690;27.956;2023-08-21T22:00:15;98901.75;;;23.80;67.96
18697;BME280;22617;43.690;27.956;2023-08-21T22:05:19;98899.44;;;23.44;69.07
18697;BME280;22617;43.690;27.956;2023-08-21T22:10:23;98895.19;;;23.26;71.32
18697;BME280;22617;43.690;27.956;2023-08-21T22:15:28;98894.28;;;23.57;68.41
18697;BME280;22617;43.690;27.956;2023-08-21T22:20:32;98903.28;;;23.84;66.89
18697;BME280;22617;43.690;27.956;2023-08-21T22:25:36;98899.28;;;23.47;67.17
18697;BME280;22617;43.690;27.956;2023-08-21T22:30:41;98907.25;;;23.47;68.59
18697;BME280;22617;43.690;27.956;2023-08-21T22:35:45;98908.53;;;23.40;68.30
18697;BME280;22617;43.690;27.956;2023-08-21T22:40:48;98903.97;;;23.58;66.23
18697;BME280;22617;43.690;27.956;2023-08-21T22:45:53;98906.38;;;23.62;66.02
18697;BME280;22617;43.690;27.956;2023-08-21T22:50:57;98912.97;;;23.71;66.54
18697;BME280;22617;43.690;27.956;2023-08-21T22:56:01;98912.56;;;23.63;66.27
18697;BME280;22617;43.690;27.956;2023-08-21T23:01:06;98909.72;;;23.66;66.08
18697;BME280;22617;43.690;27.956;2023-08-21T23:06:09;98909.72;;;23.66;67.02
18697;BME280;22617;43.690;27.956;2023-08-21T23:11:13;98903.91;;;23.59;67.23
18697;BME280;22617;43.690;27.956;2023-08-21T23:16:19;98905.59;;;23.60;65.94
18697;BME280;22617;43.690;27.956;2023-08-21T23:21:23;98901.66;;;23.67;66.25
18697;BME280;22617;43.690;27.956;2023-08-21T23:26:27;98900.28;;;23.60;65.44
18697;BME280;22617;43.690;27.956;2023-08-21T23:31:32;98901.72;;;23.66;65.30
18697;BME280;22617;43.690;27.956;2023-08-21T23:36:37;98902.25;;;23.57;65.39
18697;BME280;22617;43.690;27.956;2023-08-21T23:41:41;98906.13;;;23.51;64.65
18697;BME280;22617;43.690;27.956;2023-08-21T23:46:46;98892.94;;;23.50;64.98
18697;BME280;22617;43.690;27.956;2023-08-21T23:51:50;98905.66;;;23.44;64.75
18697;BME280;22617;43.690;27.956;2023-08-21T23:56:54;98895.31;;;23.38;65.71
